Time;durP1;ratioP1;P1;durP2;ratioP2;P2;SDS_P1;SDS_P2;PMS_P1;PMS_P2;Temp;Humidity;BMP_temperature;BMP_pressure;BME280_temperature;BME280_humidity;BME280_pressure;Samples;Min_cycle;Max_cycle;Signal;HPM_P1;HPM_P2
2021/12/22 00:00:59;;;;;;;;;;;-1.40;99.90;;;-1.43;63.53;99598.53;5035139;28;20426;-81
2021/12/22 00:03:25;;;;;;;;;;;-1.40;99.90;;;-1.40;63.83;99598.16;5023952;28;19929;-81
2021/12/22 00:05:52;;;;;;;;;;;-1.30;99.90;;;-1.38;63.97;99594.31;5050771;28;20555;-81
2021/12/22 00:08:18;;;;;;;;;;;-1.30;99.90;;;-1.41;63.86;99597.34;5034700;28;20056;-81
2021/12/22 00:10:44;;;;;;;;;;;-1.30;99.90;;;-1.43;63.69;99594.03;5030340;28;20304;-80
2021/12/22 00:13:10;;;;;;;;;;;-1.30;99.90;;;-1.45;64.14;99595.22;5033369;28;19929;-81
2021/12/22 00:15:36;;;;;;;;;;;-1.20;99.90;;;-1.35;63.81;99594.00;5015068;28;20012;-81
2021/12/22 00:18:04;;;;;;;;;;;-1.30;99.90;;;-1.35;63.21;99591.34;5001386;28;20306;-81
2021/12/22 00:20:30;;;;;;;;;;;-1.30;99.90;;;-1.51;63.69;99593.25;5002238;28;19925;-81
2021/12/22 00:22:58;;;;;;;;;;;-1.30;99.90;;;-1.55;63.78;99584.81;5017946;28;20024;-81
2021/12/22 00:25:26;;;;;;;;;;;-1.40;99.90;;;-1.50;63.63;99592.25;5021114;28;19929;-81
2021/12/22 00:27:53;;;;;;;;;;;-1.30;99.90;;;-1.62;64.05;99602.47;4998223;28;20419;-81
2021/12/22 00:30:19;;;;;;;;;;;-1.40;99.90;;;-1.65;63.98;99605.50;5017445;28;20025;-81
2021/12/22 00:32:51;;;;;;;;;;;-1.50;99.90;;;-1.61;64.12;99607.59;5015833;28;19929;-81
2021/12/22 00:35:20;;;;;;;;;;;-1.50;99.90;;;-1.59;64.00;99610.09;5002855;28;20013;-81
2021/12/22 00:37:46;;;;;;;;;;;-1.50;99.90;;;-1.62;64.24;99623.75;5022462;28;19933;-82
2021/12/22 00:40:12;;;;;;;;;;;-1.50;99.90;;;-1.69;64.56;99622.78;5038718;28;19955;-82
2021/12/22 00:42:38;;;;;;;;;;;-1.60;99.90;;;-1.79;64.72;99621.16;5019801;28;19996;-82
2021/12/22 00:45:04;;;;;;;;;;;-1.60;99.90;;;-1.77;65.18;99626.31;5020182;28;20022;-82
2021/12/22 00:47:30;;;;;;;;;;;-1.60;99.90;;;-1.72;65.23;99626.63;5040318;28;20079;-82
2021/12/22 00:49:56;;;;;;;;;;;-1.50;99.90;;;-1.66;64.55;99628.59;5019556;28;19933;-81
2021/12/22 00:52:22;;;;;;;;;;;-1.50;99.90;;;-1.60;64.64;99633.22;5007444;28;19983;-81
2021/12/22 00:54:48;;;;;;;;;;;-1.50;99.90;;;-1.57;64.55;99627.56;5007750;28;19937;-81
2021/12/22 00:57:16;;;;;;;;;;;-1.50;99.90;;;-1.58;64.48;99625.06;5021698;28;19925;-81
2021/12/22 00:59:42;;;;;;;;;;;-1.40;99.90;;;-1.57;64.42;99624.88;5037492;28;20042;-81
2021/12/22 01:02:09;;;;;;;;;;;-1.40;99.90;;;-1.50;64.57;99634.81;5019903;28;20067;-81
2021/12/22 01:04:35;;;;;;;;;;;-1.40;99.90;;;-1.47;64.83;99627.34;5005034;28;20554;-81
2021/12/22 01:07:02;;;;;;;;;;;-1.40;99.90;;;-1.41;64.54;99626.63;5021892;28;20284;-81
2021/12/22 01:09:28;;;;;;;;;;;-1.30;99.90;;;-1.47;65.10;99631.84;5034354;28;19929;-81
2021/12/22 01:11:54;;;;;;;;;;;-1.30;99.90;;;-1.33;64.78;99633.72;5023692;28;19925;-81
2021/12/22 01:14:21;;;;;;;;;;;-1.30;99.90;;;-1.26;64.66;99636.53;5005174;28;20066;-81
2021/12/22 01:16:50;;;;;;;;;;;-1.20;99.90;;;-1.22;64.61;99629.81;5052165;28;20011;-81
2021/12/22 01:19:21;;;;;;;;;;;-1.20;99.90;;;-1.23;64.30;99629.00;5023630;28;19933;-81
2021/12/22 01:21:54;;;;;;;;;;;-1.20;99.90;;;-1.28;64.22;99622.56;5035869;28;20012;-81
2021/12/22 01:24:28;;;;;;;;;;;-1.20;99.90;;;-1.23;64.27;99622.84;5021650;28;19933;-81
2021/12/22 01:27:03;;;;;;;;;;;-1.20;99.90;;;-1.30;64.52;99628.03;5036762;28;19925;-81
2021/12/22 01:29:30;;;;;;;;;;;-1.10;99.90;;;-1.37;64.46;99638.59;5024014;28;20065;-82
2021/12/22 01:31:57;;;;;;;;;;;-1.10;99.90;;;-1.25;64.41;99631.00;5036516;28;19928;-81
2021/12/22 01:34:26;;;;;;;;;;;-1.20;99.90;;;-1.27;64.46;99643.69;5024919;28;19929;-81
2021/12/22 01:36:52;;;;;;;;;;;-1.20;99.90;;;-1.32;64.64;99643.38;4996187;28;19981;-81
2021/12/22 01:39:18;;;;;;;;;;;-1.20;99.90;;;-1.31;64.43;99639.69;5001971;28;19929;-81
2021/12/22 01:41:44;;;;;;;;;;;-1.20;99.90;;;-1.08;64.00;99638.88;5008431;28;19931;-82
2021/12/22 01:44:13;;;;;;;;;;;-1.20;99.90;;;-1.16;64.36;99639.78;5020432;28;19929;-81
2021/12/22 01:49:14;;;;;;;;;;;-1.20;99.90;;;-1.14;64.67;99641.25;5036024;28;19925;-81
2021/12/22 01:52:04;;;;;;;;;;;-1.30;99.90;;;-1.06;64.39;99639.53;5018187;28;20322;-81
2021/12/22 01:55:02;;;;;;;;;;;-1.20;99.90;;;-1.09;64.51;99635.41;5032822;28;19925;-81
2021/12/22 01:57:28;;;;;;;;;;;-1.20;99.90;;;-1.20;64.88;99638.47;5028462;28;19939;-82
2021/12/22 01:59:54;;;;;;;;;;;-1.20;99.90;;;-1.20;64.84;99636.63;5022784;28;20280;-81
2021/12/22 02:02:20;;;;;;;;;;;-1.20;99.90;;;-1.22;65.02;99630.66;5003363;28;20368;-82
2021/12/22 02:04:46;;;;;;;;;;;-1.20;99.90;;;-1.04;64.95;99643.69;5020940;28;19933;-81
2021/12/22 02:07:12;;;;;;;;;;;-1.20;99.90;;;-1.03;65.15;99636.53;5038526;28;19971;-81
2021/12/22 02:10:01;;;;;;;;;;;-1.10;99.90;;;-0.99;64.73;99637.81;5020894;28;19928;-81
2021/12/22 02:12:30;;;;;;;;;;;-1.10;99.90;;;-1.02;64.70;99638.16;5025634;28;20248;-81
2021/12/22 02:14:56;;;;;;;;;;;-1.10;99.90;;;-1.00;64.98;99633.50;5023047;28;19959;-81
2021/12/22 02:17:22;;;;;;;;;;;-1.10;99.90;;;-0.89;64.09;99631.25;5000261;28;19929;-81
2021/12/22 02:19:48;;;;;;;;;;;-1.10;99.90;;;-0.92;63.99;99628.09;5018349;28;20019;-81
2021/12/22 02:22:16;;;;;;;;;;;-1.00;99.90;;;-0.96;64.04;99630.31;5041618;28;20010;-81
2021/12/22 02:24:50;;;;;;;;;;;-1.10;99.90;;;-1.09;64.22;99630.06;5035548;28;19928;-81
2021/12/22 02:27:24;;;;;;;;;;;-1.10;99.90;;;-1.12;64.70;99628.59;5051521;28;19997;-81
2021/12/22 02:29:57;;;;;;;;;;;-1.10;99.90;;;-1.20;64.81;99628.63;5023197;28;19935;-81
2021/12/22 02:35:07;;;;;;;;;;;-1.20;99.90;;;-1.20;64.44;99633.97;5036478;28;20473;-81
2021/12/22 02:37:42;;;;;;;;;;;-1.20;99.90;;;-1.14;64.17;99630.59;5047616;28;20678;-81
2021/12/22 02:40:12;;;;;;;;;;;-1.20;99.90;;;-1.16;64.49;99635.28;5036966;28;19928;-82
2021/12/22 02:42:38;;;;;;;;;;;-1.20;99.90;;;-1.18;64.79;99636.47;5022358;28;19935;-81
2021/12/22 02:45:06;;;;;;;;;;;-1.30;99.90;;;-1.22;64.42;99636.00;5018171;28;19928;-81
2021/12/22 02:47:32;;;;;;;;;;;-1.20;99.90;;;-1.27;64.81;99630.38;5020070;28;19947;-81
2021/12/22 02:49:58;;;;;;;;;;;-1.30;99.90;;;-1.23;65.24;99629.00;5005141;28;19928;-81
2021/12/22 02:52:31;;;;;;;;;;;-1.30;99.90;;;-1.28;65.48;99628.69;5035588;28;19929;-81
2021/12/22 02:54:57;;;;;;;;;;;-1.30;99.90;;;-1.29;65.36;99624.38;5024615;28;20025;-81
2021/12/22 02:57:29;;;;;;;;;;;-1.20;99.90;;;-1.14;65.07;99625.28;5052972;28;20229;-81
2021/12/22 03:02:40;;;;;;;;;;;-1.10;99.90;;;-1.10;64.75;99637.22;5022545;28;19932;-81
2021/12/22 03:05:06;;;;;;;;;;;-1.10;99.90;;;-1.15;65.14;99628.09;5037573;28;20896;-81
2021/12/22 03:07:32;;;;;;;;;;;-1.10;99.90;;;-1.24;65.08;99627.34;5039431;28;20134;-81
2021/12/22 03:10:00;;;;;;;;;;;-1.10;99.90;;;-1.37;65.39;99621.78;5033715;28;19935;-81
2021/12/22 03:12:28;;;;;;;;;;;-1.20;99.90;;;-1.38;65.34;99625.44;5049935;28;20497;-81
2021/12/22 03:14:54;;;;;;;;;;;-1.20;99.90;;;-1.20;65.08;99636.63;5020722;28;19925;-81
2021/12/22 03:17:19;;;;;;;;;;;-1.20;99.90;;;-1.20;65.27;99636.63;5022213;28;19936;-81
2021/12/22 03:19:45;;;;;;;;;;;-1.20;99.90;;;-1.17;64.74;99630.97;5018814;28;19933;-81
2021/12/22 03:22:12;;;;;;;;;;;-1.20;99.90;;;-1.24;65.39;99637.19;5022150;28;20034;-82
2021/12/22 03:24:39;;;;;;;;;;;-1.20;99.90;;;-1.20;65.14;99639.28;5033300;28;19933;-82
2021/12/22 03:27:07;;;;;;;;;;;-1.20;99.90;;;-1.22;64.62;99637.81;5021706;28;19933;-81
2021/12/22 03:29:34;;;;;;;;;;;-1.20;99.90;;;-1.24;64.73;99637.19;5021066;28;19964;-82
2021/12/22 03:32:00;;;;;;;;;;;-1.30;99.90;;;-1.24;65.03;99624.69;5021726;28;19935;-82
2021/12/22 03:34:26;;;;;;;;;;;-1.20;99.90;;;-1.09;65.21;99624.75;5025630;28;19933;-82
2021/12/22 03:36:52;;;;;;;;;;;-1.20;99.90;;;-0.94;65.24;99633.63;5025003;28;20487;-82
2021/12/22 03:39:18;;;;;;;;;;;-1.10;99.90;;;-0.93;65.42;99629.94;5020970;28;19940;-82
2021/12/22 03:41:44;;;;;;;;;;;-1.00;99.90;;;-0.94;66.10;99630.09;5007851;28;19933;-82
2021/12/22 03:44:10;;;;;;;;;;;-0.90;99.90;;;-0.87;65.48;99639.03;5034838;28;20056;-81
2021/12/22 03:46:36;;;;;;;;;;;-0.90;99.90;;;-0.79;65.62;99638.16;5025811;28;20292;-81
2021/12/22 03:49:06;;;;;;;;;;;-0.80;99.90;;;-0.84;65.06;99645.84;5022686;28;19975;-81
2021/12/22 03:51:32;;;;;;;;;;;-0.80;99.90;;;-0.85;65.38;99647.69;5023762;28;20442;-81
2021/12/22 03:53:58;;;;;;;;;;;-0.80;99.90;;;-0.79;64.91;99638.16;5025713;28;19936;-81
2021/12/22 03:56:23;;;;;;;;;;;-0.80;99.90;;;-0.72;64.94;99637.25;5020617;28;19940;-81
2021/12/22 03:58:49;;;;;;;;;;;-0.80;99.90;;;-0.70;65.19;99643.22;5020225;28;19957;-81
2021/12/22 04:01:15;;;;;;;;;;;-0.70;99.90;;;-0.70;64.99;99631.75;5026469;28;20155;-81
2021/12/22 04:03:44;;;;;;;;;;;-0.70;99.90;;;-0.69;64.85;99634.25;5009823;28;20359;-82
2021/12/22 04:06:10;;;;;;;;;;;-0.70;99.90;;;-0.70;64.37;99645.06;5018978;28;20350;-81
2021/12/22 04:08:36;;;;;;;;;;;-0.70;99.90;;;-0.71;64.46;99643.44;5023109;28;19939;-82
2021/12/22 04:11:01;;;;;;;;;;;-0.70;99.90;;;-0.58;63.94;99635.66;5036858;28;19932;-81
2021/12/22 04:13:28;;;;;;;;;;;-0.70;99.90;;;-0.63;64.00;99647.84;5024124;28;20071;-82
2021/12/22 04:15:55;;;;;;;;;;;-0.70;99.90;;;-0.59;64.38;99633.16;5039905;28;19931;-82
2021/12/22 04:18:21;;;;;;;;;;;-0.70;99.90;;;-0.46;64.45;99644.00;5006787;28;19929;-82
2021/12/22 04:20:47;;;;;;;;;;;-0.60;99.90;;;-0.41;64.44;99638.13;5016830;28;19933;-82
2021/12/22 04:23:13;;;;;;;;;;;-0.50;99.90;;;-0.48;63.92;99648.72;5021099;28;20416;-81
2021/12/22 04:25:39;;;;;;;;;;;-0.50;99.90;;;-0.47;64.28;99653.03;5006348;28;19935;-81
2021/12/22 04:28:08;;;;;;;;;;;-0.60;99.90;;;-0.52;64.74;99653.56;5026305;28;19928;-81
2021/12/22 04:30:37;;;;;;;;;;;-0.50;99.90;;;-0.38;64.47;99654.63;5025537;28;19929;-81
2021/12/22 04:33:03;;;;;;;;;;;-0.50;99.90;;;-0.40;64.42;99653.13;5018904;28;19929;-81
2021/12/22 04:35:32;;;;;;;;;;;-0.50;99.90;;;-0.37;64.11;99658.09;5048701;28;20697;-82
2021/12/22 04:37:59;;;;;;;;;;;-0.40;99.90;;;-0.32;64.03;99663.72;5001786;28;19971;-81
2021/12/22 04:40:25;;;;;;;;;;;-0.50;99.90;;;-0.37;63.50;99666.91;5022818;28;19925;-81
2021/12/22 04:42:51;;;;;;;;;;;-0.50;99.90;;;-0.44;63.74;99668.66;5018655;28;19936;-81
2021/12/22 04:45:17;;;;;;;;;;;-0.40;99.90;;;-0.49;64.34;99679.03;5000699;28;20284;-81
2021/12/22 04:47:43;;;;;;;;;;;-0.40;99.90;;;-0.57;64.51;99666.59;5025559;28;19924;-81
2021/12/22 04:50:15;;;;;;;;;;;-0.40;99.90;;;-0.41;64.40;99670.94;5037178;28;20008;-81
2021/12/22 04:52:49;;;;;;;;;;;-0.40;99.90;;;-0.39;64.19;99668.09;5023852;28;20869;-81
2021/12/22 04:55:15;;;;;;;;;;;-0.40;99.90;;;-0.38;64.05;99673.28;5026561;28;20012;-81
2021/12/22 04:57:42;;;;;;;;;;;-0.40;99.90;;;-0.39;64.10;99674.25;5017722;28;19940;-81
2021/12/22 05:00:10;;;;;;;;;;;-0.30;99.90;;;-0.38;64.34;99667.94;5029674;28;20034;-81
2021/12/22 05:02:36;;;;;;;;;;;-0.30;99.90;;;-0.29;64.04;99669.50;5020175;28;19986;-82
2021/12/22 05:05:02;;;;;;;;;;;-0.30;99.90;;;-0.31;63.71;99658.19;5019416;28;20440;-81
2021/12/22 05:07:28;;;;;;;;;;;-0.30;99.90;;;-0.35;64.43;99664.09;5017594;28;20462;-81
2021/12/22 05:09:54;;;;;;;;;;;-0.30;99.90;;;-0.19;64.05;99663.09;5023658;28;19978;-81
2021/12/22 05:12:20;;;;;;;;;;;-0.30;99.90;;;-0.22;63.78;99662.44;5017987;28;19937;-81
2021/12/22 05:14:49;;;;;;;;;;;-0.20;99.90;;;-0.24;63.56;99668.97;5020378;28;19933;-81
2021/12/22 05:17:24;;;;;;;;;;;-0.30;99.90;;;-0.38;63.84;99675.09;5003778;28;19928;-81
2021/12/22 05:19:50;;;;;;;;;;;-0.30;99.90;;;-0.33;63.26;99668.22;5022831;28;20012;-81
2021/12/22 05:22:16;;;;;;;;;;;-0.40;99.90;;;-0.34;62.41;99669.22;5002184;28;19939;-81
2021/12/22 05:24:42;;;;;;;;;;;-0.40;99.90;;;-0.45;63.06;99664.34;5004893;28;19929;-81
2021/12/22 05:27:11;;;;;;;;;;;-0.40;99.90;;;-0.52;63.03;99666.06;5021806;28;19975;-81
2021/12/22 05:29:38;;;;;;;;;;;-0.60;99.90;;;-0.60;62.38;99666.16;5014694;28;20002;-81
2021/12/22 05:32:05;;;;;;;;;;;-0.60;99.90;;;-0.74;62.91;99676.59;5037812;28;19929;-81
2021/12/22 05:34:31;;;;;;;;;;;-0.80;99.90;;;-0.97;63.78;99670.41;5035206;28;20346;-81
2021/12/22 05:36:57;;;;;;;;;;;-0.80;99.90;;;-0.98;64.03;99677.59;5013356;28;19932;-80
2021/12/22 05:39:23;;;;;;;;;;;-0.90;99.90;;;-0.96;63.50;99675.56;5018010;28;19993;-80
2021/12/22 05:41:49;;;;;;;;;;;-1.00;99.90;;;-1.01;63.82;99667.28;5019309;28;19925;-81
2021/12/22 05:44:15;;;;;;;;;;;-1.00;99.90;;;-1.06;63.25;99672.31;5020736;28;19968;-81
2021/12/22 05:46:40;;;;;;;;;;;-1.10;99.90;;;-1.15;63.10;99671.53;5016817;28;19928;-81
2021/12/22 05:49:06;;;;;;;;;;;-1.20;99.90;;;-1.26;63.34;99676.44;5032832;28;19938;-81
2021/12/22 05:51:33;;;;;;;;;;;-1.20;99.90;;;-1.35;63.82;99680.97;5033243;28;19985;-81
2021/12/22 05:53:59;;;;;;;;;;;-1.30;99.90;;;-1.40;63.98;99686.00;5032930;28;19998;-81
2021/12/22 05:56:27;;;;;;;;;;;-1.40;99.90;;;-1.43;64.91;99689.00;5024226;28;19929;-83
2021/12/22 05:58:53;;;;;;;;;;;-1.40;99.90;;;-1.38;64.45;99695.47;5008469;28;20478;-83
2021/12/22 06:01:18;;;;;;;;;;;-1.40;99.90;;;-1.31;64.21;99691.09;5024786;28;19925;-83
2021/12/22 06:03:44;;;;;;;;;;;-1.40;99.90;;;-1.32;63.94;99699.28;5006839;28;19924;-82
2021/12/22 06:06:11;;;;;;;;;;;-1.40;99.90;;;-1.30;64.09;99691.94;5020240;28;19976;-83
2021/12/22 06:08:37;;;;;;;;;;;-1.40;99.90;;;-1.27;63.78;99702.25;5020585;28;19940;-82
2021/12/22 06:11:02;;;;;;;;;;;-1.40;99.90;;;-1.35;63.67;99705.78;5005175;28;20256;-82
2021/12/22 06:13:28;;;;;;;;;;;-1.40;99.90;;;-1.51;64.42;99710.34;5018423;28;19963;-83
2021/12/22 06:15:54;;;;;;;;;;;-1.40;99.90;;;-1.56;64.91;99717.00;5021146;28;19935;-83
2021/12/22 06:18:20;;;;;;;;;;;-1.50;99.90;;;-1.61;65.25;99727.31;5003626;28;19951;-83
2021/12/22 06:20:47;;;;;;;;;;;-1.50;99.90;;;-1.58;64.81;99721.69;5015437;28;20343;-83
2021/12/22 06:23:12;;;;;;;;;;;-1.50;99.90;;;-1.48;64.59;99723.28;5024073;28;19928;-83
2021/12/22 06:25:38;;;;;;;;;;;-1.50;99.90;;;-1.52;65.05;99724.66;5021653;28;19991;-83
2021/12/22 06:28:04;;;;;;;;;;;-1.50;99.90;;;-1.51;65.11;99731.63;5017951;28;19972;-82
2021/12/22 06:30:30;;;;;;;;;;;-1.50;99.90;;;-1.47;65.06;99727.63;5016375;28;20427;-82
2021/12/22 06:32:56;;;;;;;;;;;-1.40;99.90;;;-1.41;64.99;99742.91;5020135;28;19933;-82
2021/12/22 06:35:22;;;;;;;;;;;-1.40;99.90;;;-1.40;65.25;99748.06;5001223;28;19929;-82
2021/12/22 06:37:48;;;;;;;;;;;-1.30;99.90;;;-1.38;65.11;99748.69;5018087;28;20459;-83
2021/12/22 06:40:14;;;;;;;;;;;-1.30;99.90;;;-1.35;64.96;99750.19;5001753;28;19929;-83
2021/12/22 06:42:41;;;;;;;;;;;-1.30;99.90;;;-1.27;65.03;99750.16;5002900;28;19929;-83
2021/12/22 06:45:07;;;;;;;;;;;-1.30;99.90;;;-1.28;65.25;99758.31;5016829;28;19978;-83
2021/12/22 06:47:34;;;;;;;;;;;-1.20;99.90;;;-1.23;65.12;99762.09;5000601;28;19936;-83
2021/12/22 06:50:00;;;;;;;;;;;-1.20;99.90;;;-1.17;64.98;99758.75;5017965;28;20008;-83
2021/12/22 06:52:26;;;;;;;;;;;-1.10;99.90;;;-1.13;65.11;99759.22;5016929;28;19946;-82
2021/12/22 06:54:51;;;;;;;;;;;-1.10;99.90;;;-1.08;65.18;99761.38;5016771;28;19935;-83
2021/12/22 06:57:20;;;;;;;;;;;-1.10;99.90;;;-1.00;64.59;99758.66;5018114;28;20035;-83
2021/12/22 06:59:46;;;;;;;;;;;-1.00;99.90;;;-1.06;64.62;99767.38;5019101;28;19963;-82
2021/12/22 07:02:12;;;;;;;;;;;-1.00;99.90;;;-1.15;64.42;99764.72;5001881;28;19932;-83
2021/12/22 07:04:38;;;;;;;;;;;-1.00;99.90;;;-1.12;64.68;99780.38;5003429;28;20407;-83
2021/12/22 07:07:04;;;;;;;;;;;-1.00;99.90;;;-1.14;64.72;99776.22;5018503;28;20173;-81
2021/12/22 07:09:29;;;;;;;;;;;-1.00;99.90;;;-1.09;64.80;99779.19;5027222;28;19939;-80
2021/12/22 07:11:58;;;;;;;;;;;-1.00;99.90;;;-1.05;64.60;99785.00;5039793;28;20396;-81
2021/12/22 07:14:24;;;;;;;;;;;-0.90;99.90;;;-1.00;64.53;99788.78;5039932;28;19947;-81
2021/12/22 07:16:49;;;;;;;;;;;-0.80;99.90;;;-1.01;64.66;99781.81;5027095;28;20135;-81
2021/12/22 07:19:18;;;;;;;;;;;-0.80;99.90;;;-1.10;64.51;99796.97;5015522;28;19935;-81
2021/12/22 07:21:44;;;;;;;;;;;-0.70;99.90;;;-0.92;64.97;99791.41;5014002;28;19924;-80
2021/12/22 07:24:13;;;;;;;;;;;-0.70;99.90;;;-0.86;65.10;99795.22;5012016;28;19928;-81
2021/12/22 07:26:39;;;;;;;;;;;-0.70;99.90;;;-0.87;65.05;99793.53;5009155;28;19929;-81
2021/12/22 07:29:05;;;;;;;;;;;-0.60;99.90;;;-0.81;65.26;99795.53;5024944;28;19925;-81
2021/12/22 07:31:31;;;;;;;;;;;-0.60;99.90;;;-0.79;65.23;99795.31;5047395;28;19935;-81
2021/12/22 07:34:21;;;;;;;;;;;-0.60;99.90;;;-0.66;64.74;99803.59;5026624;28;19932;-81
2021/12/22 07:37:03;;;;;;;;;;;-0.50;99.90;;;-0.67;64.60;99802.75;5001229;28;19932;-81
2021/12/22 07:39:29;;;;;;;;;;;-0.40;99.90;;;-0.69;64.80;99802.09;5029426;28;19925;-81
2021/12/22 07:41:55;;;;;;;;;;;-0.40;99.90;;;-0.55;64.23;99802.34;5011912;28;20380;-81
2021/12/22 07:44:21;;;;;;;;;;;-0.30;99.90;;;-0.58;64.35;99808.03;5024499;28;19929;-81
2021/12/22 07:46:47;;;;;;;;;;;-0.30;99.90;;;-0.58;63.90;99810.72;5041969;28;20332;-81
2021/12/22 07:49:13;;;;;;;;;;;-0.30;99.90;;;-0.50;64.57;99821.31;5028281;28;19936;-81
2021/12/22 07:51:39;;;;;;;;;;;-0.30;99.90;;;-0.47;64.46;99818.28;5041668;28;20502;-81
2021/12/22 07:54:05;;;;;;;;;;;-0.20;99.90;;;-0.46;64.42;99822.59;5053801;28;19960;-81
2021/12/22 07:56:31;;;;;;;;;;;-0.20;99.90;;;-0.36;64.53;99820.53;5021251;28;19928;-81
2021/12/22 07:58:56;;;;;;;;;;;-0.10;99.90;;;-0.14;64.34;99826.03;5021327;28;19929;-81
2021/12/22 08:01:23;;;;;;;;;;;0.00;99.90;;;0.06;64.04;99827.19;5042003;28;20362;-81
2021/12/22 08:03:48;;;;;;;;;;;0.20;99.90;;;0.13;64.60;99828.13;5022711;28;20376;-81
2021/12/22 08:06:14;;;;;;;;;;;0.30;99.90;;;0.25;64.14;99830.34;5022821;28;19929;-81
2021/12/22 08:08:40;;;;;;;;;;;0.50;99.90;;;0.36;63.91;99835.28;5006599;28;19955;-81
2021/12/22 08:11:06;;;;;;;;;;;0.60;99.90;;;0.25;63.60;99827.69;5023191;28;19932;-81
2021/12/22 08:13:33;;;;;;;;;;;0.70;99.90;;;0.42;63.54;99830.00;5020073;28;19951;-81
2021/12/22 08:15:59;;;;;;;;;;;0.80;99.90;;;0.55;63.27;99825.88;5037912;28;20283;-81
2021/12/22 08:18:25;;;;;;;;;;;0.80;99.90;;;0.64;62.56;99830.97;5005763;28;19935;-81
2021/12/22 08:20:54;;;;;;;;;;;0.90;99.90;;;0.67;62.51;99828.94;5025666;28;19935;-81
2021/12/22 08:23:20;;;;;;;;;;;1.00;99.90;;;0.70;62.48;99829.38;5012398;28;19936;-81
2021/12/22 08:25:46;;;;;;;;;;;1.00;99.90;;;0.78;62.56;99833.81;5008014;28;19933;-81
2021/12/22 08:28:12;;;;;;;;;;;1.10;99.90;;;0.85;62.52;99832.88;5030488;28;19954;-81
2021/12/22 08:30:38;;;;;;;;;;;1.20;99.90;;;0.90;62.25;99835.00;5039798;28;19936;-81
2021/12/22 08:33:15;;;;;;;;;;;1.30;99.90;;;0.90;61.58;99829.66;5045597;28;19928;-81
2021/12/22 08:41:13;;;;;;;;;;;1.20;99.90;;;0.81;60.75;99836.09;5038451;28;19970;-81
2021/12/22 08:43:39;;;;;;;;;;;1.20;99.90;;;0.74;60.53;99835.19;5017876;28;20382;-82
2021/12/22 08:46:05;;;;;;;;;;;1.10;99.90;;;0.70;60.64;99833.91;5026516;28;19931;-81
2021/12/22 08:48:31;;;;;;;;;;;1.10;99.90;;;0.54;61.08;99848.28;5032511;28;19984;-81
2021/12/22 08:50:57;;;;;;;;;;;0.90;99.90;;;0.38;60.60;99846.56;5006550;28;19929;-81
2021/12/22 08:53:23;;;;;;;;;;;0.80;99.90;;;0.27;60.88;99847.84;5033344;28;19929;-81
2021/12/22 08:55:49;;;;;;;;;;;0.70;99.90;;;0.21;60.73;99852.06;5010368;28;19929;-81
2021/12/22 08:58:15;;;;;;;;;;;0.60;99.90;;;0.24;60.85;99850.88;5018783;28;19932;-81
2021/12/22 09:00:40;;;;;;;;;;;0.60;99.90;;;0.13;61.05;99848.66;5034878;28;19929;-81
2021/12/22 09:03:06;;;;;;;;;;;0.50;99.90;;;0.19;61.03;99854.09;5017367;28;19981;-81
2021/12/22 09:05:32;;;;;;;;;;;0.50;99.90;;;0.26;60.45;99850.72;5039134;28;20557;-81
2021/12/22 09:07:58;;;;;;;;;;;0.50;99.90;;;0.26;60.73;99850.72;5021680;28;19928;-81
2021/12/22 09:10:24;;;;;;;;;;;0.50;99.90;;;0.28;60.20;99856.69;5036390;28;20413;-81
2021/12/22 09:12:50;;;;;;;;;;;0.60;99.90;;;0.21;60.97;99852.06;5035119;28;19978;-81
2021/12/22 09:15:17;;;;;;;;;;;0.60;99.90;;;0.31;60.19;99861.69;5037467;28;20342;-81
2021/12/22 09:17:44;;;;;;;;;;;0.60;99.90;;;0.20;60.67;99852.25;5019018;28;19929;-81
2021/12/22 09:20:10;;;;;;;;;;;0.60;99.90;;;0.18;60.64;99851.63;5032836;28;19963;-81
2021/12/22 09:22:39;;;;;;;;;;;0.60;99.90;;;0.20;60.66;99849.56;5016276;28;19933;-81
2021/12/22 09:25:05;;;;;;;;;;;0.60;99.90;;;0.16;60.63;99851.78;5020904;28;19935;-81
2021/12/22 09:27:31;;;;;;;;;;;0.60;99.90;;;0.17;60.79;99852.63;5016771;28;19928;-81
2021/12/22 09:29:57;;;;;;;;;;;0.60;99.90;;;0.24;59.95;99861.56;5020306;28;19955;-81
2021/12/22 09:32:23;;;;;;;;;;;0.60;99.90;;;0.13;60.44;99860.16;5005389;28;19972;-81
2021/12/22 09:34:49;;;;;;;;;;;0.60;99.90;;;0.07;60.46;99854.69;5021079;28;19932;-81
2021/12/22 09:37:16;;;;;;;;;;;0.50;99.90;;;0.03;60.03;99856.91;5017741;28;19932;-81
2021/12/22 09:39:44;;;;;;;;;;;0.50;99.90;;;0.11;59.56;99856.84;5048827;28;20024;-81
2021/12/22 09:42:10;;;;;;;;;;;0.50;99.90;;;0.28;57.95;99864.69;5039752;28;20220;-81
2021/12/22 09:44:44;;;;;;;;;;;0.60;99.90;;;0.31;58.28;99859.84;5023304;28;19932;-81
2021/12/22 09:47:12;;;;;;;;;;;0.60;99.90;;;0.29;57.69;99853.84;5027044;28;20387;-81
2021/12/22 09:52:21;;;;;;;;;;;0.60;99.90;;;0.18;57.95;99852.44;5024805;28;19933;-82
2021/12/22 09:54:54;;;;;;;;;;;0.60;99.90;;;0.30;57.26;99857.34;5021705;28;20457;-81
2021/12/22 09:57:20;;;;;;;;;;;0.70;99.90;;;0.37;56.43;99847.59;5024827;28;19925;-81
2021/12/22 09:59:50;;;;;;;;;;;0.70;99.90;;;0.34;56.49;99850.63;5018538;28;19964;-81
2021/12/22 10:02:18;;;;;;;;;;;0.70;99.90;;;0.28;56.93;99852.19;5018899;28;20076;-81
2021/12/22 10:04:44;;;;;;;;;;;0.70;99.90;;;0.28;57.09;99854.88;5012976;28;19929;-81
2021/12/22 10:07:16;;;;;;;;;;;0.70;99.90;;;0.27;56.79;99855.03;5023322;28;19929;-81
2021/12/22 10:09:45;;;;;;;;;;;0.70;99.90;;;0.31;57.07;99859.84;5021182;28;20035;-81
2021/12/22 10:12:16;;;;;;;;;;;0.80;99.90;;;0.48;56.62;99851.66;5019132;28;20015;-81
2021/12/22 10:14:54;;;;;;;;;;;0.80;99.90;;;0.40;56.15;99864.06;5007743;28;19929;-80
2021/12/22 10:17:32;;;;;;;;;;;0.90;99.90;;;0.49;54.92;99859.50;5036888;28;19933;-80
2021/12/22 10:20:08;;;;;;;;;;;0.80;99.90;;;0.50;55.15;99854.97;5034921;28;19964;-81
2021/12/22 10:22:37;;;;;;;;;;;0.80;99.90;;;0.48;55.08;99852.47;5021140;28;19936;-81
2021/12/22 10:25:23;;;;;;;;;;;0.90;99.90;;;0.55;55.13;99850.75;5035711;28;19932;-81
2021/12/22 10:28:05;;;;;;;;;;;0.90;99.90;;;0.57;55.60;99845.22;5055236;28;19982;-81
2021/12/22 10:30:41;;;;;;;;;;;0.90;99.90;;;0.51;55.18;99844.13;5035878;28;19929;-80
2021/12/22 10:33:20;;;;;;;;;;;1.00;99.90;;;0.50;54.85;99846.97;5020465;28;20387;-80
2021/12/22 10:35:48;;;;;;;;;;;1.00;99.90;;;0.56;54.99;99836.41;5039753;28;19936;-80
2021/12/22 10:38:15;;;;;;;;;;;1.00;99.90;;;0.68;55.06;99835.94;5021919;28;20443;-80
2021/12/22 10:40:45;;;;;;;;;;;1.00;99.90;;;0.66;54.73;99833.44;5020932;28;19928;-80
2021/12/22 10:43:25;;;;;;;;;;;1.00;99.90;;;0.75;54.42;99839.53;5047225;28;19935;-80
2021/12/22 10:45:55;;;;;;;;;;;1.10;99.90;;;0.84;54.65;99836.59;5044220;28;19957;-80
2021/12/22 10:51:09;;;;;;;;;;;1.30;99.90;;;1.12;53.89;99840.41;5033401;28;20314;-81
2021/12/22 10:53:46;;;;;;;;;;;1.40;99.90;;;1.28;54.41;99829.50;5023641;28;19955;-81
2021/12/22 10:56:45;;;;;;;;;;;1.60;99.90;;;1.44;53.92;99825.78;5036359;28;19960;-80
2021/12/22 10:59:18;;;;;;;;;;;1.80;99.90;;;1.60;54.39;99824.69;5010138;28;19982;-81
2021/12/22 11:01:50;;;;;;;;;;;2.10;99.90;;;1.74;54.41;99831.84;5021019;28;19932;-81
2021/12/22 11:04:18;;;;;;;;;;;2.20;99.90;;;1.93;53.22;99830.38;5057241;28;20289;-80
2021/12/22 11:06:48;;;;;;;;;;;2.50;99.90;;;2.16;53.03;99822.97;5022527;28;19932;-81
2021/12/22 11:09:15;;;;;;;;;;;2.60;99.90;;;2.28;52.65;99828.59;5042459;28;20447;-81
2021/12/22 11:11:42;;;;;;;;;;;2.80;99.90;;;2.42;51.87;99826.00;5030042;28;19978;-81
2021/12/22 11:14:19;;;;;;;;;;;3.00;99.90;;;2.46;51.34;99819.25;5025273;28;19925;-81
2021/12/22 11:17:03;;;;;;;;;;;3.10;99.90;;;2.49;49.92;99821.53;5024315;28;19929;-81
2021/12/22 11:19:36;;;;;;;;;;;3.20;99.90;;;2.36;50.27;99819.59;5040452;28;20034;-81
2021/12/22 11:22:09;;;;;;;;;;;3.20;99.90;;;2.31;50.79;99816.69;5025291;28;19935;-81
2021/12/22 11:24:41;;;;;;;;;;;3.20;99.90;;;2.46;50.52;99816.56;5039396;28;19960;-81
2021/12/22 11:27:08;;;;;;;;;;;3.10;99.90;;;2.46;50.07;99819.25;5008869;28;19929;-81
2021/12/22 11:29:36;;;;;;;;;;;3.10;99.90;;;2.47;49.64;99810.19;5037271;28;19932;-81
2021/12/22 11:32:04;;;;;;;;;;;3.10;99.90;;;2.34;49.64;99813.59;5025218;28;19974;-81
2021/12/22 11:34:34;;;;;;;;;;;3.10;99.60;;;2.41;49.94;99811.81;5042595;28;19928;-81
2021/12/22 11:37:02;;;;;;;;;;;3.00;99.90;;;2.55;50.24;99818.91;5040059;28;20316;-81
2021/12/22 11:39:29;;;;;;;;;;;3.10;99.90;;;2.71;49.84;99817.75;5039205;28;19960;-81
2021/12/22 11:41:57;;;;;;;;;;;3.20;99.90;;;2.78;50.19;99812.47;5006895;28;19924;-81
2021/12/22 11:44:26;;;;;;;;;;;3.40;99.90;;;2.94;49.67;99809.44;5010087;28;20023;-81